sensor_id;sensor_type;location;lat;lon;timestamp;P1;durP1;ratioP1;P2;durP2;ratioP2
41446;SDS011;27185;52.040;4.490;2023-05-20T00:00:44;5.93;;;2.88;;
41446;SDS011;27185;52.040;4.490;2023-05-20T00:03:33;6.88;;;2.38;;
41446;SDS011;27185;52.040;4.490;2023-05-20T00:06:19;9.07;;;3.88;;
41446;SDS011;27185;52.040;4.490;2023-05-20T00:09:05;7.13;;;3.17;;
41446;SDS011;27185;52.040;4.490;2023-05-20T00:11:50;8.85;;;2.78;;
41446;SDS011;27185;52.040;4.490;2023-05-20T00:14:36;7.22;;;2.95;;
41446;SDS011;27185;52.040;4.490;2023-05-20T00:17:21;7.35;;;3.10;;
41446;SDS011;27185;52.040;4.490;2023-05-20T00:20:07;7.70;;;3.38;;
41446;SDS011;27185;52.040;4.490;2023-05-20T00:22:53;8.13;;;3.47;;
41446;SDS011;27185;52.040;4.490;2023-05-20T00:25:39;6.70;;;3.13;;
41446;SDS011;27185;52.040;4.490;2023-05-20T00:28:24;7.15;;;3.45;;
41446;SDS011;27185;52.040;4.490;2023-05-20T00:31:10;9.05;;;3.58;;
41446;SDS011;27185;52.040;4.490;2023-05-20T00:33:56;12.05;;;3.85;;
41446;SDS011;27185;52.040;4.490;2023-05-20T00:36:41;9.50;;;4.03;;
41446;SDS011;27185;52.040;4.490;2023-05-20T00:39:27;11.82;;;3.70;;
41446;SDS011;27185;52.040;4.490;2023-05-20T00:42:24;9.98;;;3.10;;
41446;SDS011;27185;52.040;4.490;2023-05-20T00:45:11;7.47;;;3.15;;
41446;SDS011;27185;52.040;4.490;2023-05-20T00:47:56;8.13;;;3.30;;
41446;SDS011;27185;52.040;4.490;2023-05-20T00:50:45;4.75;;;3.08;;
41446;SDS011;27185;52.040;4.490;2023-05-20T00:53:31;11.35;;;4.07;;
41446;SDS011;27185;52.040;4.490;2023-05-20T00:56:17;12.15;;;3.67;;
41446;SDS011;27185;52.040;4.490;2023-05-20T00:59:04;7.75;;;3.97;;
41446;SDS011;27185;52.040;4.490;2023-05-20T01:01:50;10.02;;;4.07;;
41446;SDS011;27185;52.040;4.490;2023-05-20T01:04:36;8.52;;;3.60;;
41446;SDS011;27185;52.040;4.490;2023-05-20T01:07:21;8.57;;;4.13;;
41446;SDS011;27185;52.040;4.490;2023-05-20T01:10:07;8.23;;;3.33;;
41446;SDS011;27185;52.040;4.490;2023-05-20T01:12:54;11.98;;;3.85;;
41446;SDS011;27185;52.040;4.490;2023-05-20T01:15:43;9.13;;;4.05;;
41446;SDS011;27185;52.040;4.490;2023-05-20T01:18:32;11.45;;;4.38;;
41446;SDS011;27185;52.040;4.490;2023-05-20T01:21:18;6.95;;;3.40;;
41446;SDS011;27185;52.040;4.490;2023-05-20T01:24:04;7.00;;;3.83;;
41446;SDS011;27185;52.040;4.490;2023-05-20T01:26:50;7.45;;;3.45;;
41446;SDS011;27185;52.040;4.490;2023-05-20T01:29:36;10.35;;;3.92;;
41446;SDS011;27185;52.040;4.490;2023-05-20T01:32:24;10.73;;;4.10;;
41446;SDS011;27185;52.040;4.490;2023-05-20T01:35:12;7.90;;;3.55;;
41446;SDS011;27185;52.040;4.490;2023-05-20T01:38:00;9.07;;;3.88;;
41446;SDS011;27185;52.040;4.490;2023-05-20T01:40:49;12.52;;;3.97;;
41446;SDS011;27185;52.040;4.490;2023-05-20T01:43:35;9.40;;;4.75;;
41446;SDS011;27185;52.040;4.490;2023-05-20T01:46:22;11.73;;;4.20;;
41446;SDS011;27185;52.040;4.490;2023-05-20T01:49:08;8.73;;;4.18;;
41446;SDS011;27185;52.040;4.490;2023-05-20T01:51:53;14.70;;;4.95;;
41446;SDS011;27185;52.040;4.490;2023-05-20T01:54:39;7.20;;;3.90;;
41446;SDS011;27185;52.040;4.490;2023-05-20T01:57:25;7.95;;;3.67;;
41446;SDS011;27185;52.040;4.490;2023-05-20T02:00:10;9.65;;;4.35;;
41446;SDS011;27185;52.040;4.490;2023-05-20T02:02:56;7.68;;;3.92;;
41446;SDS011;27185;52.040;4.490;2023-05-20T02:05:42;13.00;;;4.65;;
41446;SDS011;27185;52.040;4.490;2023-05-20T02:08:28;6.55;;;3.75;;
41446;SDS011;27185;52.040;4.490;2023-05-20T02:11:13;8.93;;;3.95;;
41446;SDS011;27185;52.040;4.490;2023-05-20T02:13:59;11.45;;;4.28;;
41446;SDS011;27185;52.040;4.490;2023-05-20T02:16:45;9.82;;;4.30;;
41446;SDS011;27185;52.040;4.490;2023-05-20T02:19:31;9.73;;;4.22;;
41446;SDS011;27185;52.040;4.490;2023-05-20T02:22:17;8.00;;;4.00;;
41446;SDS011;27185;52.040;4.490;2023-05-20T02:25:02;9.43;;;3.80;;
41446;SDS011;27185;52.040;4.490;2023-05-20T02:27:48;8.55;;;3.97;;
41446;SDS011;27185;52.040;4.490;2023-05-20T02:30:34;9.13;;;3.85;;
41446;SDS011;27185;52.040;4.490;2023-05-20T02:33:19;8.07;;;4.10;;
41446;SDS011;27185;52.040;4.490;2023-05-20T02:36:05;7.13;;;3.30;;
41446;SDS011;27185;52.040;4.490;2023-05-20T02:38:51;11.73;;;4.75;;
41446;SDS011;27185;52.040;4.490;2023-05-20T02:41:38;8.70;;;3.97;;
41446;SDS011;27185;52.040;4.490;2023-05-20T02:44:24;9.65;;;4.55;;
41446;SDS011;27185;52.040;4.490;2023-05-20T02:47:09;11.15;;;4.68;;
41446;SDS011;27185;52.040;4.490;2023-05-20T02:49:55;15.30;;;5.32;;
41446;SDS011;27185;52.040;4.490;2023-05-20T02:52:41;8.57;;;4.45;;
41446;SDS011;27185;52.040;4.490;2023-05-20T02:55:26;9.30;;;4.47;;
41446;SDS011;27185;52.040;4.490;2023-05-20T02:58:12;9.52;;;3.95;;
41446;SDS011;27185;52.040;4.490;2023-05-20T03:00:58;9.93;;;4.00;;
41446;SDS011;27185;52.040;4.490;2023-05-20T03:03:44;8.43;;;4.72;;
41446;SDS011;27185;52.040;4.490;2023-05-20T03:06:29;7.63;;;4.38;;
41446;SDS011;27185;52.040;4.490;2023-05-20T03:09:15;9.27;;;4.30;;
41446;SDS011;27185;52.040;4.490;2023-05-20T03:12:03;10.60;;;5.00;;
41446;SDS011;27185;52.040;4.490;2023-05-20T03:14:49;12.88;;;4.32;;
41446;SDS011;27185;52.040;4.490;2023-05-20T03:17:39;10.85;;;5.30;;
41446;SDS011;27185;52.040;4.490;2023-05-20T03:20:24;9.13;;;3.85;;
41446;SDS011;27185;52.040;4.490;2023-05-20T03:23:10;11.82;;;4.90;;
41446;SDS011;27185;52.040;4.490;2023-05-20T03:25:56;8.90;;;4.00;;
41446;SDS011;27185;52.040;4.490;2023-05-20T03:28:42;9.05;;;4.50;;
41446;SDS011;27185;52.040;4.490;2023-05-20T03:31:27;9.60;;;4.43;;
41446;SDS011;27185;52.040;4.490;2023-05-20T03:34:13;9.32;;;3.92;;
41446;SDS011;27185;52.040;4.490;2023-05-20T03:36:58;9.32;;;4.47;;
41446;SDS011;27185;52.040;4.490;2023-05-20T03:39:44;10.65;;;4.30;;
41446;SDS011;27185;52.040;4.490;2023-05-20T03:42:30;7.43;;;4.18;;
41446;SDS011;27185;52.040;4.490;2023-05-20T03:48:03;8.30;;;3.92;;
41446;SDS011;27185;52.040;4.490;2023-05-20T03:50:49;8.57;;;4.30;;
41446;SDS011;27185;52.040;4.490;2023-05-20T03:53:35;8.68;;;3.60;;
41446;SDS011;27185;52.040;4.490;2023-05-20T03:56:21;10.00;;;4.43;;
41446;SDS011;27185;52.040;4.490;2023-05-20T03:59:06;9.45;;;4.30;;
41446;SDS011;27185;52.040;4.490;2023-05-20T04:01:52;9.05;;;3.95;;
41446;SDS011;27185;52.040;4.490;2023-05-20T04:04:38;6.82;;;3.63;;
41446;SDS011;27185;52.040;4.490;2023-05-20T04:07:26;11.45;;;5.38;;
41446;SDS011;27185;52.040;4.490;2023-05-20T04:10:13;10.48;;;4.60;;
41446;SDS011;27185;52.040;4.490;2023-05-20T04:12:59;8.52;;;4.57;;
41446;SDS011;27185;52.040;4.490;2023-05-20T04:15:45;10.05;;;4.13;;
41446;SDS011;27185;52.040;4.490;2023-05-20T04:18:31;10.98;;;5.07;;
41446;SDS011;27185;52.040;4.490;2023-05-20T04:21:17;11.75;;;5.05;;
41446;SDS011;27185;52.040;4.490;2023-05-20T04:24:05;9.50;;;4.45;;
41446;SDS011;27185;52.040;4.490;2023-05-20T04:26:51;10.15;;;5.13;;
41446;SDS011;27185;52.040;4.490;2023-05-20T04:29:36;12.38;;;5.97;;
41446;SDS011;27185;52.040;4.490;2023-05-20T04:32:22;11.52;;;6.05;;
41446;SDS011;27185;52.040;4.490;2023-05-20T04:35:08;12.52;;;5.85;;
41446;SDS011;27185;52.040;4.490;2023-05-20T04:37:55;11.07;;;5.55;;
41446;SDS011;27185;52.040;4.490;2023-05-20T04:40:41;13.38;;;6.65;;
41446;SDS011;27185;52.040;4.490;2023-05-20T04:43:27;12.27;;;5.65;;
41446;SDS011;27185;52.040;4.490;2023-05-20T04:46:17;13.98;;;6.43;;
41446;SDS011;27185;52.040;4.490;2023-05-20T04:49:04;13.90;;;5.57;;
41446;SDS011;27185;52.040;4.490;2023-05-20T04:51:50;19.35;;;6.25;;
41446;SDS011;27185;52.040;4.490;2023-05-20T04:54:39;11.30;;;5.85;;
41446;SDS011;27185;52.040;4.490;2023-05-20T04:57:25;15.05;;;6.38;;
41446;SDS011;27185;52.040;4.490;2023-05-20T05:00:11;14.77;;;5.90;;
41446;SDS011;27185;52.040;4.490;2023-05-20T05:02:57;9.43;;;5.30;;
41446;SDS011;27185;52.040;4.490;2023-05-20T05:05:44;10.25;;;4.95;;
41446;SDS011;27185;52.040;4.490;2023-05-20T05:08:29;9.68;;;4.68;;
41446;SDS011;27185;52.040;4.490;2023-05-20T05:11:15;10.90;;;4.30;;
41446;SDS011;27185;52.040;4.490;2023-05-20T05:14:00;10.60;;;4.30;;
41446;SDS011;27185;52.040;4.490;2023-05-20T05:16:46;9.23;;;4.93;;
41446;SDS011;27185;52.040;4.490;2023-05-20T05:19:31;12.80;;;4.65;;
41446;SDS011;27185;52.040;4.490;2023-05-20T05:22:17;11.30;;;4.68;;
41446;SDS011;27185;52.040;4.490;2023-05-20T05:25:03;8.75;;;4.55;;
41446;SDS011;27185;52.040;4.490;2023-05-20T05:27:48;10.75;;;4.82;;
41446;SDS011;27185;52.040;4.490;2023-05-20T05:30:34;10.35;;;4.18;;
41446;SDS011;27185;52.040;4.490;2023-05-20T05:33:21;7.53;;;4.75;;
41446;SDS011;27185;52.040;4.490;2023-05-20T05:36:07;10.73;;;4.80;;
41446;SDS011;27185;52.040;4.490;2023-05-20T05:38:52;6.18;;;4.20;;
41446;SDS011;27185;52.040;4.490;2023-05-20T05:41:38;11.05;;;4.70;;
41446;SDS011;27185;52.040;4.490;2023-05-20T05:44:23;7.63;;;4.68;;
41446;SDS011;27185;52.040;4.490;2023-05-20T05:47:09;13.38;;;5.57;;
41446;SDS011;27185;52.040;4.490;2023-05-20T05:49:55;11.93;;;6.18;;
41446;SDS011;27185;52.040;4.490;2023-05-20T05:52:40;11.02;;;6.00;;
41446;SDS011;27185;52.040;4.490;2023-05-20T05:55:26;10.40;;;4.82;;
41446;SDS011;27185;52.040;4.490;2023-05-20T05:58:13;10.13;;;5.32;;
41446;SDS011;27185;52.040;4.490;2023-05-20T06:00:58;11.23;;;5.88;;
41446;SDS011;27185;52.040;4.490;2023-05-20T06:03:44;8.93;;;4.82;;
41446;SDS011;27185;52.040;4.490;2023-05-20T06:06:30;8.95;;;4.40;;
41446;SDS011;27185;52.040;4.490;2023-05-20T06:09:15;10.15;;;4.80;;
41446;SDS011;27185;52.040;4.490;2023-05-20T06:12:01;12.75;;;5.70;;
41446;SDS011;27185;52.040;4.490;2023-05-20T06:14:47;8.30;;;5.10;;
41446;SDS011;27185;52.040;4.490;2023-05-20T06:17:33;12.55;;;4.53;;
41446;SDS011;27185;52.040;4.490;2023-05-20T06:20:18;10.15;;;3.72;;
41446;SDS011;27185;52.040;4.490;2023-05-20T06:23:04;8.35;;;3.63;;
41446;SDS011;27185;52.040;4.490;2023-05-20T06:25:49;7.30;;;3.65;;
41446;SDS011;27185;52.040;4.490;2023-05-20T06:28:35;8.98;;;3.58;;
41446;SDS011;27185;52.040;4.490;2023-05-20T06:31:21;9.38;;;4.10;;
41446;SDS011;27185;52.040;4.490;2023-05-20T06:34:07;9.25;;;4.05;;
41446;SDS011;27185;52.040;4.490;2023-05-20T06:36:52;6.63;;;3.45;;
41446;SDS011;27185;52.040;4.490;2023-05-20T06:39:38;7.35;;;3.70;;
41446;SDS011;27185;52.040;4.490;2023-05-20T06:42:24;7.93;;;2.92;;
41446;SDS011;27185;52.040;4.490;2023-05-20T06:45:10;6.10;;;3.00;;
41446;SDS011;27185;52.040;4.490;2023-05-20T06:47:57;10.82;;;3.30;;
41446;SDS011;27185;52.040;4.490;2023-05-20T06:50:44;6.65;;;3.08;;
41446;SDS011;27185;52.040;4.490;2023-05-20T06:53:29;8.25;;;3.17;;
41446;SDS011;27185;52.040;4.490;2023-05-20T06:56:15;12.05;;;5.93;;
41446;SDS011;27185;52.040;4.490;2023-05-20T06:59:01;12.35;;;4.25;;
41446;SDS011;27185;52.040;4.490;2023-05-20T07:01:46;9.00;;;3.30;;
41446;SDS011;27185;52.040;4.490;2023-05-20T07:04:32;8.52;;;3.38;;
41446;SDS011;27185;52.040;4.490;2023-05-20T07:07:17;7.30;;;3.05;;
41446;SDS011;27185;52.040;4.490;2023-05-20T07:10:03;7.88;;;2.97;;
41446;SDS011;27185;52.040;4.490;2023-05-20T07:12:50;8.20;;;2.75;;
41446;SDS011;27185;52.040;4.490;2023-05-20T07:15:35;7.82;;;3.05;;
41446;SDS011;27185;52.040;4.490;2023-05-20T07:18:21;4.60;;;2.60;;
41446;SDS011;27185;52.040;4.490;2023-05-20T07:21:06;9.70;;;3.33;;
41446;SDS011;27185;52.040;4.490;2023-05-20T07:23:52;5.80;;;3.00;;
41446;SDS011;27185;52.040;4.490;2023-05-20T07:26:38;6.25;;;2.85;;
41446;SDS011;27185;52.040;4.490;2023-05-20T07:29:23;4.45;;;2.20;;
41446;SDS011;27185;52.040;4.490;2023-05-20T07:32:09;7.78;;;2.95;;
41446;SDS011;27185;52.040;4.490;2023-05-20T07:34:55;5.35;;;2.70;;
41446;SDS011;27185;52.040;4.490;2023-05-20T07:37:40;8.18;;;3.30;;
41446;SDS011;27185;52.040;4.490;2023-05-20T07:40:26;5.05;;;2.47;;
41446;SDS011;27185;52.040;4.490;2023-05-20T07:43:12;5.85;;;2.70;;
41446;SDS011;27185;52.040;4.490;2023-05-20T07:45:58;7.93;;;3.17;;
41446;SDS011;27185;52.040;4.490;2023-05-20T07:48:44;5.53;;;3.00;;
41446;SDS011;27185;52.040;4.490;2023-05-20T07:51:30;6.07;;;3.13;;
41446;SDS011;27185;52.040;4.490;2023-05-20T07:54:15;11.65;;;5.93;;
41446;SDS011;27185;52.040;4.490;2023-05-20T07:57:01;7.15;;;3.97;;
41446;SDS011;27185;52.040;4.490;2023-05-20T07:59:47;4.88;;;2.75;;
41446;SDS011;27185;52.040;4.490;2023-05-20T08:02:33;6.20;;;3.28;;
41446;SDS011;27185;52.040;4.490;2023-05-20T08:05:18;5.18;;;2.50;;
41446;SDS011;27185;52.040;4.490;2023-05-20T08:08:04;7.25;;;2.72;;
41446;SDS011;27185;52.040;4.490;2023-05-20T08:10:50;4.50;;;2.38;;
41446;SDS011;27185;52.040;4.490;2023-05-20T08:13:36;4.63;;;2.28;;
41446;SDS011;27185;52.040;4.490;2023-05-20T08:16:22;4.60;;;1.80;;
41446;SDS011;27185;52.040;4.490;2023-05-20T08:19:08;5.60;;;2.45;;
41446;SDS011;27185;52.040;4.490;2023-05-20T08:21:54;4.97;;;2.10;;
41446;SDS011;27185;52.040;4.490;2023-05-20T08:24:39;6.45;;;2.13;;
41446;SDS011;27185;52.040;4.490;2023-05-20T08:27:25;5.25;;;2.40;;
41446;SDS011;27185;52.040;4.490;2023-05-20T08:30:10;4.95;;;2.47;;
41446;SDS011;27185;52.040;4.490;2023-05-20T08:32:56;5.72;;;2.78;;
41446;SDS011;27185;52.040;4.490;2023-05-20T08:35:42;4.45;;;1.77;;
41446;SDS011;27185;52.040;4.490;2023-05-20T08:38:28;4.03;;;1.90;;
41446;SDS011;27185;52.040;4.490;2023-05-20T08:41:13;5.53;;;2.30;;
41446;SDS011;27185;52.040;4.490;2023-05-20T08:44:00;4.70;;;1.60;;
41446;SDS011;27185;52.040;4.490;2023-05-20T08:46:46;4.22;;;1.83;;
41446;SDS011;27185;52.040;4.490;2023-05-20T08:49:32;3.25;;;1.67;;
41446;SDS011;27185;52.040;4.490;2023-05-20T08:52:20;4.65;;;2.38;;
41446;SDS011;27185;52.040;4.490;2023-05-20T08:55:06;4.85;;;1.88;;
41446;SDS011;27185;52.040;4.490;2023-05-20T08:57:55;4.57;;;1.60;;
41446;SDS011;27185;52.040;4.490;2023-05-20T09:00:41;4.63;;;1.50;;
41446;SDS011;27185;52.040;4.490;2023-05-20T09:03:28;3.15;;;1.65;;
41446;SDS011;27185;52.040;4.490;2023-05-20T09:06:15;4.53;;;1.60;;
41446;SDS011;27185;52.040;4.490;2023-05-20T09:09:04;5.13;;;1.73;;
41446;SDS011;27185;52.040;4.490;2023-05-20T09:11:49;2.50;;;1.40;;
41446;SDS011;27185;52.040;4.490;2023-05-20T09:14:35;8.15;;;1.65;;
41446;SDS011;27185;52.040;4.490;2023-05-20T09:17:21;6.30;;;1.60;;
41446;SDS011;27185;52.040;4.490;2023-05-20T09:20:08;4.22;;;1.65;;
41446;SDS011;27185;52.040;4.490;2023-05-20T09:23:01;3.60;;;1.38;;
41446;SDS011;27185;52.040;4.490;2023-05-20T09:25:48;3.55;;;1.23;;
41446;SDS011;27185;52.040;4.490;2023-05-20T09:28:37;6.10;;;1.60;;
41446;SDS011;27185;52.040;4.490;2023-05-20T09:31:25;8.57;;;1.73;;
41446;SDS011;27185;52.040;4.490;2023-05-20T09:34:12;1.98;;;0.98;;
41446;SDS011;27185;52.040;4.490;2023-05-20T09:36:58;5.57;;;1.98;;
41446;SDS011;27185;52.040;4.490;2023-05-20T09:39:59;4.47;;;1.88;;
41446;SDS011;27185;52.040;4.490;2023-05-20T09:45:46;4.22;;;1.60;;
41446;SDS011;27185;52.040;4.490;2023-05-20T09:48:34;2.75;;;1.10;;
41446;SDS011;27185;52.040;4.490;2023-05-20T09:51:23;3.70;;;1.27;;
41446;SDS011;27185;52.040;4.490;2023-05-20T09:54:11;5.17;;;0.87;;
41446;SDS011;27185;52.040;4.490;2023-05-20T09:56:58;3.42;;;1.00;;
41446;SDS011;27185;52.040;4.490;2023-05-20T09:59:44;6.22;;;1.10;;
41446;SDS011;27185;52.040;4.490;2023-05-20T10:02:34;5.10;;;1.05;;
41446;SDS011;27185;52.040;4.490;2023-05-20T10:05:23;4.03;;;1.45;;
41446;SDS011;27185;52.040;4.490;2023-05-20T10:08:17;3.45;;;0.95;;
41446;SDS011;27185;52.040;4.490;2023-05-20T10:14:32;2.78;;;1.00;;
41446;SDS011;27185;52.040;4.490;2023-05-20T10:20:10;3.13;;;0.90;;
41446;SDS011;27185;52.040;4.490;2023-05-20T10:22:56;4.75;;;1.30;;
41446;SDS011;27185;52.040;4.490;2023-05-20T10:25:48;3.42;;;1.08;;
41446;SDS011;27185;52.040;4.490;2023-05-20T10:28:39;5.32;;;0.90;;
41446;SDS011;27185;52.040;4.490;2023-05-20T10:31:25;3.78;;;1.00;;
41446;SDS011;27185;52.040;4.490;2023-05-20T10:34:15;3.35;;;1.17;;
41446;SDS011;27185;52.040;4.490;2023-05-20T10:37:02;4.07;;;1.10;;
41446;SDS011;27185;52.040;4.490;2023-05-20T10:39:48;5.60;;;1.33;;
41446;SDS011;27185;52.040;4.490;2023-05-20T10:42:33;5.10;;;1.30;;
41446;SDS011;27185;52.040;4.490;2023-05-20T10:45:26;6.45;;;1.00;;
41446;SDS011;27185;52.040;4.490;2023-05-20T10:48:19;4.80;;;0.80;;
41446;SDS011;27185;52.040;4.490;2023-05-20T10:51:11;2.70;;;1.00;;
41446;SDS011;27185;52.040;4.490;2023-05-20T10:53:58;3.58;;;1.35;;
41446;SDS011;27185;52.040;4.490;2023-05-20T10:56:50;3.70;;;0.98;;
41446;SDS011;27185;52.040;4.490;2023-05-20T10:59:37;3.72;;;1.15;;
41446;SDS011;27185;52.040;4.490;2023-05-20T11:02:23;2.30;;;1.00;;
41446;SDS011;27185;52.040;4.490;2023-05-20T11:05:12;2.17;;;0.90;;
41446;SDS011;27185;52.040;4.490;2023-05-20T11:08:01;2.20;;;0.80;;
41446;SDS011;27185;52.040;4.490;2023-05-20T11:10:47;9.93;;;1.07;;
41446;SDS011;27185;52.040;4.490;2023-05-20T11:13:33;2.72;;;0.93;;
41446;SDS011;27185;52.040;4.490;2023-05-20T11:16:21;6.40;;;0.98;;
41446;SDS011;27185;52.040;4.490;2023-05-20T11:19:07;3.10;;;1.30;;
41446;SDS011;27185;52.040;4.490;2023-05-20T11:21:53;2.65;;;0.93;;
41446;SDS011;27185;52.040;4.490;2023-05-20T11:24:39;4.15;;;1.30;;
41446;SDS011;27185;52.040;4.490;2023-05-20T11:27:24;3.80;;;0.90;;
41446;SDS011;27185;52.040;4.490;2023-05-20T11:30:13;5.93;;;1.10;;
41446;SDS011;27185;52.040;4.490;2023-05-20T11:33:05;2.45;;;1.10;;
41446;SDS011;27185;52.040;4.490;2023-05-20T11:35:51;2.47;;;0.80;;
41446;SDS011;27185;52.040;4.490;2023-05-20T11:38:39;2.97;;;1.08;;
41446;SDS011;27185;52.040;4.490;2023-05-20T11:41:25;6.32;;;1.80;;
41446;SDS011;27185;52.040;4.490;2023-05-20T11:44:11;4.88;;;1.27;;
41446;SDS011;27185;52.040;4.490;2023-05-20T11:47:00;4.18;;;1.10;;
41446;SDS011;27185;52.040;4.490;2023-05-20T11:49:47;2.60;;;1.10;;
41446;SDS011;27185;52.040;4.490;2023-05-20T11:52:33;5.13;;;1.80;;
41446;SDS011;27185;52.040;4.490;2023-05-20T11:55:19;7.00;;;1.10;;
41446;SDS011;27185;52.040;4.490;2023-05-20T11:58:04;3.55;;;1.20;;
41446;SDS011;27185;52.040;4.490;2023-05-20T12:00:50;3.63;;;1.10;;
41446;SDS011;27185;52.040;4.490;2023-05-20T12:03:36;5.10;;;1.38;;
41446;SDS011;27185;52.040;4.490;2023-05-20T12:06:22;1.70;;;0.90;;
41446;SDS011;27185;52.040;4.490;2023-05-20T12:09:07;3.17;;;1.30;;
41446;SDS011;27185;52.040;4.490;2023-05-20T12:11:54;3.90;;;1.55;;
41446;SDS011;27185;52.040;4.490;2023-05-20T12:14:40;3.30;;;1.30;;
41446;SDS011;27185;52.040;4.490;2023-05-20T12:17:26;2.95;;;1.10;;
41446;SDS011;27185;52.040;4.490;2023-05-20T12:20:12;2.75;;;1.45;;
41446;SDS011;27185;52.040;4.490;2023-05-20T12:22:59;5.95;;;1.05;;
41446;SDS011;27185;52.040;4.490;2023-05-20T12:25:45;3.20;;;1.10;;
41446;SDS011;27185;52.040;4.490;2023-05-20T12:28:33;2.22;;;1.00;;
41446;SDS011;27185;52.040;4.490;2023-05-20T12:31:19;2.10;;;0.98;;
41446;SDS011;27185;52.040;4.490;2023-05-20T12:34:04;2.47;;;0.98;;
41446;SDS011;27185;52.040;4.490;2023-05-20T12:36:50;3.70;;;1.20;;
41446;SDS011;27185;52.040;4.490;2023-05-20T12:39:36;2.30;;;1.17;;
41446;SDS011;27185;52.040;4.490;2023-05-20T12:42:21;2.42;;;0.90;;
41446;SDS011;27185;52.040;4.490;2023-05-20T12:45:07;5.38;;;1.00;;
41446;SDS011;27185;52.040;4.490;2023-05-20T12:47:54;6.35;;;1.30;;
41446;SDS011;27185;52.040;4.490;2023-05-20T12:50:40;3.45;;;1.00;;
41446;SDS011;27185;52.040;4.490;2023-05-20T12:53:26;2.78;;;0.98;;
41446;SDS011;27185;52.040;4.490;2023-05-20T12:56:11;3.90;;;0.88;;
41446;SDS011;27185;52.040;4.490;2023-05-20T12:58:57;2.58;;;1.10;;
41446;SDS011;27185;52.040;4.490;2023-05-20T13:01:43;2.50;;;0.90;;
41446;SDS011;27185;52.040;4.490;2023-05-20T13:04:28;2.63;;;1.00;;
41446;SDS011;27185;52.040;4.490;2023-05-20T13:07:14;2.90;;;0.90;;
41446;SDS011;27185;52.040;4.490;2023-05-20T13:09:59;3.63;;;1.05;;
41446;SDS011;27185;52.040;4.490;2023-05-20T13:12:45;9.07;;;1.17;;
41446;SDS011;27185;52.040;4.490;2023-05-20T13:15:31;2.78;;;0.70;;
41446;SDS011;27185;52.040;4.490;2023-05-20T13:18:20;2.88;;;1.02;;
41446;SDS011;27185;52.040;4.490;2023-05-20T13:21:06;4.20;;;0.90;;
41446;SDS011;27185;52.040;4.490;2023-05-20T13:23:52;4.32;;;1.00;;
41446;SDS011;27185;52.040;4.490;2023-05-20T13:26:37;2.00;;;0.80;;
41446;SDS011;27185;52.040;4.490;2023-05-20T13:29:23;1.98;;;0.80;;
41446;SDS011;27185;52.040;4.490;2023-05-20T13:32:09;3.95;;;1.08;;
41446;SDS011;27185;52.040;4.490;2023-05-20T13:34:54;5.03;;;0.90;;
41446;SDS011;27185;52.040;4.490;2023-05-20T13:37:41;9.07;;;1.13;;
41446;SDS011;27185;52.040;4.490;2023-05-20T13:40:26;2.28;;;0.90;;
41446;SDS011;27185;52.040;4.490;2023-05-20T13:43:12;2.92;;;0.95;;
41446;SDS011;27185;52.040;4.490;2023-05-20T13:45:57;2.80;;;1.00;;
41446;SDS011;27185;52.040;4.490;2023-05-20T13:48:43;2.97;;;0.98;;
41446;SDS011;27185;52.040;4.490;2023-05-20T13:51:29;2.42;;;0.80;;
41446;SDS011;27185;52.040;4.490;2023-05-20T13:54:15;2.37;;;0.83;;
41446;SDS011;27185;52.040;4.490;2023-05-20T13:57:01;3.33;;;1.10;;
41446;SDS011;27185;52.040;4.490;2023-05-20T13:59:51;2.75;;;0.90;;
41446;SDS011;27185;52.040;4.490;2023-05-20T14:02:37;3.95;;;1.00;;
41446;SDS011;27185;52.040;4.490;2023-05-20T14:05:22;2.53;;;1.23;;
41446;SDS011;27185;52.040;4.490;2023-05-20T14:08:08;3.20;;;1.00;;
41446;SDS011;27185;52.040;4.490;2023-05-20T14:10:53;2.17;;;0.90;;
41446;SDS011;27185;52.040;4.490;2023-05-20T14:13:39;3.00;;;1.10;;
41446;SDS011;27185;52.040;4.490;2023-05-20T14:16:25;3.15;;;0.95;;
41446;SDS011;27185;52.040;4.490;2023-05-20T14:19:11;6.47;;;1.00;;
41446;SDS011;27185;52.040;4.490;2023-05-20T14:21:56;6.80;;;0.93;;
41446;SDS011;27185;52.040;4.490;2023-05-20T14:24:45;3.30;;;0.70;;
41446;SDS011;27185;52.040;4.490;2023-05-20T14:27:30;2.30;;;0.95;;
41446;SDS011;27185;52.040;4.490;2023-05-20T14:30:16;3.42;;;0.90;;
41446;SDS011;27185;52.040;4.490;2023-05-20T14:33:02;1.95;;;0.90;;
41446;SDS011;27185;52.040;4.490;2023-05-20T14:35:47;2.33;;;0.70;;
41446;SDS011;27185;52.040;4.490;2023-05-20T14:38:33;3.28;;;0.98;;
41446;SDS011;27185;52.040;4.490;2023-05-20T14:41:18;3.08;;;1.25;;
41446;SDS011;27185;52.040;4.490;2023-05-20T14:44:04;3.00;;;0.85;;
41446;SDS011;27185;52.040;4.490;2023-05-20T14:46:49;3.88;;;1.00;;
41446;SDS011;27185;52.040;4.490;2023-05-20T14:49:35;2.40;;;0.80;;
41446;SDS011;27185;52.040;4.490;2023-05-20T14:55:08;5.22;;;1.08;;
41446;SDS011;27185;52.040;4.490;2023-05-20T14:57:54;2.88;;;0.90;;
41446;SDS011;27185;52.040;4.490;2023-05-20T15:00:40;5.28;;;1.98;;
41446;SDS011;27185;52.040;4.490;2023-05-20T15:03:25;9.38;;;6.00;;
41446;SDS011;27185;52.040;4.490;2023-05-20T15:06:12;11.15;;;7.82;;
41446;SDS011;27185;52.040;4.490;2023-05-20T15:08:57;5.65;;;2.10;;
41446;SDS011;27185;52.040;4.490;2023-05-20T15:11:43;9.80;;;5.90;;
41446;SDS011;27185;52.040;4.490;2023-05-20T15:14:28;9.90;;;4.43;;
41446;SDS011;27185;52.040;4.490;2023-05-20T15:17:14;5.03;;;2.28;;
41446;SDS011;27185;52.040;4.490;2023-05-20T15:20:00;4.78;;;1.15;;
41446;SDS011;27185;52.040;4.490;2023-05-20T15:22:46;7.40;;;2.40;;
41446;SDS011;27185;52.040;4.490;2023-05-20T15:25:32;5.82;;;3.50;;
41446;SDS011;27185;52.040;4.490;2023-05-20T15:28:17;6.82;;;4.78;;
41446;SDS011;27185;52.040;4.490;2023-05-20T15:31:03;7.07;;;4.00;;
41446;SDS011;27185;52.040;4.490;2023-05-20T15:33:49;19.30;;;6.32;;
41446;SDS011;27185;52.040;4.490;2023-05-20T15:36:35;5.50;;;3.10;;
41446;SDS011;27185;52.040;4.490;2023-05-20T15:39:20;4.50;;;1.45;;
41446;SDS011;27185;52.040;4.490;2023-05-20T15:42:06;5.38;;;1.55;;
41446;SDS011;27185;52.040;4.490;2023-05-20T15:44:52;2.65;;;1.10;;
41446;SDS011;27185;52.040;4.490;2023-05-20T15:47:37;7.32;;;1.05;;
41446;SDS011;27185;52.040;4.490;2023-05-20T15:50:23;3.95;;;0.90;;
41446;SDS011;27185;52.040;4.490;2023-05-20T15:53:08;4.43;;;1.23;;
41446;SDS011;27185;52.040;4.490;2023-05-20T15:55:54;3.20;;;1.10;;
41446;SDS011;27185;52.040;4.490;2023-05-20T15:58:40;4.30;;;1.40;;
41446;SDS011;27185;52.040;4.490;2023-05-20T16:01:26;3.97;;;1.02;;
41446;SDS011;27185;52.040;4.490;2023-05-20T16:04:12;2.83;;;0.73;;
41446;SDS011;27185;52.040;4.490;2023-05-20T16:06:57;2.58;;;1.25;;
41446;SDS011;27185;52.040;4.490;2023-05-20T16:09:43;3.78;;;1.42;;
41446;SDS011;27185;52.040;4.490;2023-05-20T16:12:29;5.35;;;1.48;;
41446;SDS011;27185;52.040;4.490;2023-05-20T16:15:15;3.30;;;1.00;;
41446;SDS011;27185;52.040;4.490;2023-05-20T16:18:01;5.90;;;1.45;;
41446;SDS011;27185;52.040;4.490;2023-05-20T16:20:47;3.47;;;1.40;;
41446;SDS011;27185;52.040;4.490;2023-05-20T16:23:32;2.83;;;1.30;;
41446;SDS011;27185;52.040;4.490;2023-05-20T16:26:18;5.57;;;1.42;;
41446;SDS011;27185;52.040;4.490;2023-05-20T16:29:04;4.00;;;1.52;;
41446;SDS011;27185;52.040;4.490;2023-05-20T16:31:50;3.92;;;1.60;;
41446;SDS011;27185;52.040;4.490;2023-05-20T16:34:36;4.90;;;1.70;;
41446;SDS011;27185;52.040;4.490;2023-05-20T16:37:22;3.53;;;1.38;;
41446;SDS011;27185;52.040;4.490;2023-05-20T16:40:07;6.72;;;2.42;;
41446;SDS011;27185;52.040;4.490;2023-05-20T16:42:53;5.93;;;2.67;;
41446;SDS011;27185;52.040;4.490;2023-05-20T16:45:39;5.80;;;1.33;;
41446;SDS011;27185;52.040;4.490;2023-05-20T16:48:25;4.22;;;1.85;;
41446;SDS011;27185;52.040;4.490;2023-05-20T16:51:10;4.15;;;1.70;;
41446;SDS011;27185;52.040;4.490;2023-05-20T16:53:56;6.18;;;2.10;;